Time;durP1;ratioP1;P1;durP2;ratioP2;P2;SDS_P1;SDS_P2;PMS_P1;PMS_P2;Temp;Humidity;BMP_temperature;BMP_pressure;BME280_temperature;BME280_humidity;BME280_pressure;Samples;Min_cycle;Max_cycle;Signal;HPM_P1;HPM_P2
2023/04/06 00:00:48;;;;;;;35.53;20.50;;;7.00;99.90;;;;;;5095827;28;20016;-70
2023/04/06 00:03:14;;;;;;;39.50;19.27;;;7.00;99.90;;;;;;5096042;28;20016;-71
2023/04/06 00:05:40;;;;;;;41.22;20.95;;;7.00;99.90;;;;;;5095849;28;20388;-71
2023/04/06 00:08:06;;;;;;;38.42;20.52;;;7.00;99.90;;;;;;5095576;28;20028;-70
2023/04/06 00:10:32;;;;;;;40.67;20.75;;;7.00;99.90;;;;;;5095772;28;20039;-70
2023/04/06 00:12:59;;;;;;;41.13;20.52;;;7.10;99.90;;;;;;5091214;28;20043;-70
2023/04/06 00:15:25;;;;;;;40.13;21.45;;;7.10;99.90;;;;;;5083761;28;20024;-70
2023/04/06 00:17:50;;;;;;;38.65;20.70;;;7.10;99.90;;;;;;5095788;28;20020;-70
2023/04/06 00:20:17;;;;;;;37.65;20.02;;;7.10;99.90;;;;;;5095666;28;20085;-70
2023/04/06 00:22:44;;;;;;;43.30;21.02;;;7.20;99.90;;;;;;5093080;28;20076;-70
2023/04/06 00:25:10;;;;;;;37.58;20.85;;;7.10;99.90;;;;;;5081314;28;20025;-69
2023/04/06 00:27:37;;;;;;;35.80;18.88;;;7.10;99.90;;;;;;5095760;28;20492;-70
2023/04/06 00:30:04;;;;;;;37.42;20.08;;;7.20;99.90;;;;;;5095628;28;20020;-71
2023/04/06 00:32:30;;;;;;;37.08;20.05;;;7.20;99.90;;;;;;5095404;28;20486;-71
2023/04/06 00:34:56;;;;;;;34.97;20.23;;;7.20;99.90;;;;;;5095530;28;20064;-71
2023/04/06 00:37:21;;;;;;;34.55;19.73;;;7.20;99.90;;;;;;5095266;28;20106;-70
2023/04/06 00:39:47;;;;;;;36.38;18.40;;;7.20;99.90;;;;;;5095474;28;20103;-71
2023/04/06 00:42:13;;;;;;;35.60;18.00;;;7.10;99.90;;;;;;5095523;28;20035;-71
2023/04/06 00:44:43;;;;;;;34.55;17.35;;;7.20;99.90;;;;;;5095301;28;20024;-71
2023/04/06 00:47:09;;;;;;;31.45;16.42;;;7.20;99.90;;;;;;5095053;28;20438;-71
2023/04/06 00:49:35;;;;;;;35.05;17.15;;;7.20;99.90;;;;;;5095037;28;20028;-71
2023/04/06 00:52:01;;;;;;;31.30;16.13;;;7.10;99.90;;;;;;5095057;28;20016;-71
2023/04/06 00:54:27;;;;;;;33.45;16.75;;;7.20;99.90;;;;;;5095037;28;20501;-69
2023/04/06 00:56:53;;;;;;;32.05;14.98;;;7.10;99.90;;;;;;5094374;28;20051;-70
2023/04/06 00:59:18;;;;;;;31.60;15.73;;;7.20;99.90;;;;;;5094879;28;20521;-69
2023/04/06 01:01:45;;;;;;;31.35;14.52;;;7.10;99.90;;;;;;5094986;28;20024;-70
2023/04/06 01:04:11;;;;;;;27.00;14.85;;;7.10;99.90;;;;;;5094759;28;20027;-70
2023/04/06 01:06:36;;;;;;;29.77;14.98;;;7.20;99.90;;;;;;5094489;28;20020;-71
2023/04/06 01:09:02;;;;;;;26.77;13.40;;;7.20;99.90;;;;;;5094826;28;20024;-71
2023/04/06 01:11:28;;;;;;;29.80;14.85;;;7.20;99.90;;;;;;5094857;28;20095;-70
2023/04/06 01:13:53;;;;;;;26.92;12.98;;;7.20;99.90;;;;;;5091758;28;20040;-70
2023/04/06 01:16:19;;;;;;;26.33;12.95;;;7.20;99.90;;;;;;5094702;28;20073;-71
2023/04/06 01:18:45;;;;;;;25.50;12.52;;;7.20;99.90;;;;;;5094601;28;20028;-71
2023/04/06 01:21:15;;;;;;;24.20;12.25;;;7.20;99.90;;;;;;5094028;28;20063;-70
2023/04/06 01:23:43;;;;;;;28.45;12.65;;;7.20;99.90;;;;;;5094599;28;20428;-70
2023/04/06 01:26:09;;;;;;;23.08;12.43;;;7.20;99.90;;;;;;5094266;28;20060;-70
2023/04/06 01:28:37;;;;;;;25.80;12.68;;;7.20;99.90;;;;;;5094300;28;20020;-70
2023/04/06 01:31:02;;;;;;;23.67;12.30;;;7.20;99.90;;;;;;5094525;28;20487;-70
2023/04/06 01:33:28;;;;;;;23.80;10.85;;;7.20;99.90;;;;;;5093704;28;20036;-70
2023/04/06 01:35:54;;;;;;;23.38;11.77;;;7.20;99.90;;;;;;5082059;28;20682;-70
2023/04/06 01:38:20;;;;;;;23.33;11.90;;;7.20;99.90;;;;;;5090407;28;20016;-71
2023/04/06 01:40:46;;;;;;;27.92;12.10;;;7.10;99.90;;;;;;5092999;28;20039;-71
2023/04/06 01:43:11;;;;;;;22.40;10.70;;;7.10;99.90;;;;;;5091777;28;20067;-70
2023/04/06 01:45:37;;;;;;;27.00;11.57;;;7.10;99.90;;;;;;5092629;28;20020;-70
2023/04/06 01:48:04;;;;;;;21.77;10.40;;;7.10;99.90;;;;;;5092853;28;20031;-71
2023/04/06 01:50:30;;;;;;;22.77;11.55;;;7.10;99.90;;;;;;5093274;28;20020;-71
2023/04/06 01:52:55;;;;;;;23.83;10.85;;;7.10;99.90;;;;;;5094108;28;20118;-70
2023/04/06 01:55:21;;;;;;;23.45;10.60;;;7.00;99.90;;;;;;5094446;28;20035;-71
2023/04/06 01:57:46;;;;;;;25.13;10.18;;;7.00;99.90;;;;;;5093773;28;20024;-71
2023/04/06 02:00:13;;;;;;;23.95;11.07;;;6.90;99.90;;;;;;5092519;28;20077;-70
2023/04/06 02:02:38;;;;;;;23.23;10.93;;;7.00;99.90;;;;;;5093085;28;20039;-71
2023/04/06 02:05:04;;;;;;;25.88;11.70;;;6.90;99.90;;;;;;5092532;28;20469;-72
2023/04/06 02:07:30;;;;;;;22.08;10.80;;;7.00;99.90;;;;;;5092267;28;20102;-71
2023/04/06 02:09:55;;;;;;;22.88;10.88;;;6.90;99.90;;;;;;5092621;28;20649;-71
2023/04/06 02:12:21;;;;;;;25.35;10.80;;;6.90;99.90;;;;;;5091719;28;20024;-71
2023/04/06 02:14:47;;;;;;;23.55;11.10;;;6.90;99.90;;;;;;5092206;28;20093;-73
2023/04/06 02:17:12;;;;;;;21.75;10.65;;;6.90;99.90;;;;;;5091871;28;20040;-71
2023/04/06 02:19:38;;;;;;;23.42;11.00;;;6.90;99.90;;;;;;5091991;28;20097;-70
2023/04/06 02:22:03;;;;;;;21.88;10.90;;;6.90;99.90;;;;;;5091995;28;20028;-72
2023/04/06 02:24:29;;;;;;;23.98;11.48;;;6.90;99.90;;;;;;5092319;28;20024;-71
2023/04/06 02:26:54;;;;;;;22.38;10.75;;;6.90;99.90;;;;;;5091873;28;20039;-72
2023/04/06 02:29:20;;;;;;;23.75;10.15;;;6.90;99.90;;;;;;5092244;28;20033;-70
2023/04/06 02:31:46;;;;;;;22.10;10.38;;;6.90;99.90;;;;;;5092152;28;20024;-70
2023/04/06 02:34:17;;;;;;;23.73;10.85;;;6.90;99.90;;;;;;5091701;28;20039;-72
2023/04/06 02:36:45;;;;;;;22.40;11.68;;;6.90;99.90;;;;;;5088592;28;20024;-70
2023/04/06 02:39:12;;;;;;;23.92;10.20;;;6.90;99.90;;;;;;5091884;28;20103;-71
2023/04/06 02:41:38;;;;;;;22.15;11.40;;;6.90;99.90;;;;;;5092029;28;20065;-70
2023/04/06 02:44:03;;;;;;;22.98;10.73;;;7.00;99.90;;;;;;5091772;28;20028;-72
2023/04/06 02:46:29;;;;;;;19.75;10.10;;;7.00;99.90;;;;;;5091646;28;20020;-73
2023/04/06 02:48:55;;;;;;;22.08;10.52;;;7.00;99.90;;;;;;5091891;28;20023;-71
2023/04/06 02:51:20;;;;;;;21.92;9.90;;;7.00;99.90;;;;;;5091702;28;20020;-71
2023/04/06 02:53:46;;;;;;;22.00;10.80;;;7.00;99.90;;;;;;5091822;28;20032;-72
2023/04/06 02:56:12;;;;;;;22.52;10.07;;;7.00;99.90;;;;;;5091526;28;20019;-73
2023/04/06 02:58:37;;;;;;;20.15;9.75;;;7.00;99.90;;;;;;5091679;28;20032;-72
2023/04/06 03:01:03;;;;;;;21.80;10.30;;;7.00;99.90;;;;;;5090301;28;20380;-71
2023/04/06 03:03:29;;;;;;;22.73;10.75;;;7.00;99.90;;;;;;5091727;28;20028;-73
2023/04/06 03:05:58;;;;;;;22.70;10.35;;;7.00;99.90;;;;;;5091653;28;20024;-73
2023/04/06 03:08:24;;;;;;;20.40;9.68;;;7.00;99.90;;;;;;5091697;28;20044;-73
2023/04/06 03:10:50;;;;;;;24.15;11.30;;;7.10;99.90;;;;;;5091718;28;20032;-73
2023/04/06 03:13:16;;;;;;;22.73;9.65;;;7.00;99.90;;;;;;5091298;28;20406;-72
2023/04/06 03:15:41;;;;;;;22.80;10.80;;;7.10;99.90;;;;;;5091307;28;20020;-72
2023/04/06 03:18:07;;;;;;;20.90;9.55;;;7.10;99.90;;;;;;5091458;28;20027;-72
2023/04/06 03:20:32;;;;;;;22.85;11.23;;;7.10;99.90;;;;;;5094839;28;20036;-70
2023/04/06 03:22:59;;;;;;;20.67;9.02;;;7.20;99.90;;;;;;5093128;28;20024;-73
2023/04/06 03:25:25;;;;;;;22.55;10.70;;;7.20;99.90;;;;;;5095747;28;20040;-71
2023/04/06 03:27:50;;;;;;;22.02;9.93;;;7.20;99.90;;;;;;5095393;28;20380;-73
2023/04/06 03:30:17;;;;;;;23.63;10.70;;;7.20;99.90;;;;;;5093909;28;20035;-73
2023/04/06 03:32:43;;;;;;;21.48;10.32;;;7.20;99.90;;;;;;5095483;28;20069;-72
2023/04/06 03:35:09;;;;;;;23.83;11.13;;;7.20;99.90;;;;;;5095330;28;20024;-69
2023/04/06 03:37:35;;;;;;;23.23;10.30;;;7.20;99.90;;;;;;5095425;28;20091;-75
2023/04/06 03:40:01;;;;;;;21.83;10.98;;;7.20;99.90;;;;;;5095487;28;20094;-71
2023/04/06 03:42:26;;;;;;;22.77;10.88;;;7.20;99.90;;;;;;5092259;28;20391;-72
2023/04/06 03:44:52;;;;;;;27.38;11.30;;;7.20;99.90;;;;;;5092157;28;20541;-69
2023/04/06 03:47:18;;;;;;;25.38;12.35;;;7.20;99.90;;;;;;5087704;28;20032;-73
2023/04/06 03:49:43;;;;;;;22.95;10.68;;;7.30;99.90;;;;;;5096231;28;20016;-71
2023/04/06 03:52:09;;;;;;;20.20;9.95;;;7.30;99.90;;;;;;5096270;28;20039;-70
2023/04/06 03:54:35;;;;;;;25.55;11.80;;;7.30;99.90;;;;;;5096308;28;20532;-72
2023/04/06 03:57:00;;;;;;;20.40;11.38;;;7.30;99.90;;;;;;5096093;28;20083;-70
2023/04/06 03:59:26;;;;;;;23.92;11.57;;;7.30;99.90;;;;;;5095766;28;20729;-70
2023/04/06 04:01:52;;;;;;;23.35;11.30;;;7.30;99.90;;;;;;5096393;28;20153;-73
2023/04/06 04:04:17;;;;;;;24.17;10.60;;;7.30;99.90;;;;;;5096508;28;20384;-71
2023/04/06 04:06:43;;;;;;;23.08;11.45;;;7.30;99.90;;;;;;5096449;28;20514;-71
2023/04/06 04:09:08;;;;;;;26.08;12.32;;;7.20;99.90;;;;;;5096264;28;20032;-73
2023/04/06 04:11:34;;;;;;;24.38;10.65;;;7.20;99.90;;;;;;5096469;28;20028;-72
2023/04/06 04:14:00;;;;;;;24.75;11.85;;;7.20;99.90;;;;;;5096241;28;20467;-72
2023/04/06 04:16:25;;;;;;;26.70;12.20;;;7.20;99.90;;;;;;5096191;28;20063;-70
2023/04/06 04:18:51;;;;;;;22.83;11.70;;;7.20;99.90;;;;;;5096227;28;20058;-71
2023/04/06 04:21:16;;;;;;;24.08;11.77;;;7.10;99.90;;;;;;5096135;28;20035;-72
2023/04/06 04:23:42;;;;;;;25.15;11.90;;;7.20;99.90;;;;;;5093033;28;20047;-71
2023/04/06 04:26:08;;;;;;;26.73;11.75;;;7.20;99.90;;;;;;5095907;28;20404;-70
2023/04/06 04:28:33;;;;;;;23.70;12.30;;;7.20;99.90;;;;;;5095615;28;20017;-72
2023/04/06 04:30:59;;;;;;;22.00;10.85;;;7.20;99.90;;;;;;5095660;28;20451;-71
2023/04/06 04:33:25;;;;;;;25.27;11.95;;;7.20;99.90;;;;;;5095955;28;20112;-70
2023/04/06 04:35:50;;;;;;;24.33;11.38;;;7.20;99.90;;;;;;5096055;28;20110;-71
2023/04/06 04:38:16;;;;;;;22.13;11.18;;;7.20;99.90;;;;;;5094556;28;20039;-72
2023/04/06 04:40:41;;;;;;;26.58;12.10;;;7.20;99.90;;;;;;5095876;28;20069;-71
2023/04/06 04:43:07;;;;;;;27.08;12.52;;;7.20;99.90;;;;;;5095199;28;20035;-71
2023/04/06 04:45:32;;;;;;;24.52;12.35;;;7.20;99.90;;;;;;5095663;28;20020;-72
2023/04/06 04:47:58;;;;;;;25.95;12.38;;;7.20;99.90;;;;;;5095696;28;20357;-73
2023/04/06 04:50:23;;;;;;;25.13;11.63;;;7.30;99.90;;;;;;5095424;28;20391;-73
2023/04/06 04:52:49;;;;;;;26.88;12.93;;;7.30;99.90;;;;;;5095309;28;20460;-72
2023/04/06 04:55:15;;;;;;;25.50;11.77;;;7.30;99.90;;;;;;5095282;28;20026;-69
2023/04/06 04:57:40;;;;;;;25.83;12.52;;;7.30;99.90;;;;;;5095288;28;20453;-73
2023/04/06 05:00:06;;;;;;;24.70;12.07;;;7.30;99.90;;;;;;5095371;28;20077;-72
2023/04/06 05:02:32;;;;;;;24.17;12.18;;;7.40;99.90;;;;;;5095503;28;20055;-71
2023/04/06 05:04:57;;;;;;;24.73;12.45;;;7.40;99.90;;;;;;5095144;28;20052;-70
2023/04/06 05:07:23;;;;;;;27.40;12.77;;;7.40;99.90;;;;;;5095124;28;20043;-71
2023/04/06 05:09:49;;;;;;;28.73;12.57;;;7.40;99.90;;;;;;5093381;28;20052;-69
2023/04/06 05:12:14;;;;;;;29.83;13.45;;;7.40;99.90;;;;;;5085419;28;20024;-70
2023/04/06 05:14:40;;;;;;;27.15;12.52;;;7.40;99.90;;;;;;5094672;28;20093;-71
2023/04/06 05:17:06;;;;;;;24.42;11.25;;;7.40;99.90;;;;;;5094958;28;20089;-70
2023/04/06 05:19:31;;;;;;;27.88;13.05;;;7.40;99.90;;;;;;5094781;28;20099;-72
2023/04/06 05:21:57;;;;;;;24.15;11.20;;;7.40;99.90;;;;;;5094789;28;20058;-70
2023/04/06 05:24:22;;;;;;;26.10;11.10;;;7.40;99.90;;;;;;5094786;28;20047;-72
2023/04/06 05:26:48;;;;;;;24.00;10.65;;;7.30;99.90;;;;;;5094823;28;20074;-71
2023/04/06 05:29:14;;;;;;;26.73;12.23;;;7.30;99.90;;;;;;5094723;28;20464;-70
2023/04/06 05:31:40;;;;;;;27.23;12.30;;;7.30;99.90;;;;;;5094801;28;20028;-71
2023/04/06 05:34:06;;;;;;;26.05;12.13;;;7.20;99.90;;;;;;5094763;28;20044;-70
2023/04/06 05:36:32;;;;;;;24.95;12.15;;;7.20;99.90;;;;;;5094443;28;20043;-71
2023/04/06 05:38:58;;;;;;;28.05;14.35;;;7.30;99.90;;;;;;5094475;28;20020;-72
2023/04/06 05:41:24;;;;;;;29.88;13.60;;;7.30;99.90;;;;;;5093672;28;20441;-72
2023/04/06 05:43:49;;;;;;;29.00;13.82;;;7.40;99.90;;;;;;5094111;28;20022;-69
2023/04/06 05:46:15;;;;;;;30.25;14.77;;;7.40;99.90;;;;;;5094527;28;20020;-72
2023/04/06 05:48:40;;;;;;;26.38;11.85;;;7.50;99.90;;;;;;5094197;28;20034;-69
2023/04/06 05:51:06;;;;;;;28.23;13.95;;;7.50;99.90;;;;;;5094039;28;20034;-70
2023/04/06 05:53:32;;;;;;;27.92;13.07;;;7.50;99.90;;;;;;5094091;28;20071;-70
2023/04/06 05:56:00;;;;;;;27.75;13.15;;;7.60;99.90;;;;;;5094225;28;20073;-74
2023/04/06 05:58:26;;;;;;;25.90;12.02;;;7.60;99.90;;;;;;5094433;28;20031;-72
2023/04/06 06:00:59;;;;;;;28.65;13.50;;;7.60;99.90;;;;;;5093961;28;20036;-73
2023/04/06 06:03:25;;;;;;;27.15;13.18;;;7.60;99.90;;;;;;5094017;28;20497;-70
2023/04/06 06:05:50;;;;;;;26.90;11.50;;;7.50;99.90;;;;;;5090089;28;20028;-72
2023/04/06 06:08:16;;;;;;;25.73;12.93;;;7.50;99.90;;;;;;5085688;28;20032;-71
2023/04/06 06:10:41;;;;;;;28.67;14.02;;;7.50;99.90;;;;;;5087171;28;20099;-73
2023/04/06 06:13:07;;;;;;;30.15;14.85;;;7.50;99.90;;;;;;5093623;28;20036;-74
2023/04/06 06:15:33;;;;;;;32.53;15.60;;;7.50;99.90;;;;;;5093582;28;20031;-72
2023/04/06 06:17:58;;;;;;;27.95;14.20;;;7.60;99.90;;;;;;5093796;28;20024;-71
2023/04/06 06:20:25;;;;;;;31.25;16.38;;;7.70;99.90;;;;;;5093586;28;20035;-71
2023/04/06 06:22:51;;;;;;;31.00;16.77;;;7.80;99.90;;;;;;5093671;28;20048;-72
2023/04/06 06:25:16;;;;;;;31.30;14.70;;;8.00;99.90;;;;;;5093329;28;20117;-70
2023/04/06 06:27:42;;;;;;;29.48;14.98;;;8.00;99.90;;;;;;5093850;28;20392;-71
2023/04/06 06:30:08;;;;;;;29.17;13.93;;;8.10;99.90;;;;;;5093434;28;20021;-72
2023/04/06 06:32:34;;;;;;;30.70;15.57;;;8.20;99.90;;;;;;5093918;28;20024;-73
2023/04/06 06:34:59;;;;;;;30.70;13.80;;;8.30;99.90;;;;;;5093645;28;20465;-72
2023/04/06 06:37:25;;;;;;;30.92;15.90;;;8.40;99.90;;;;;;5093498;28;20107;-70
2023/04/06 06:39:51;;;;;;;28.80;14.93;;;8.50;99.90;;;;;;5093267;28;20509;-70
2023/04/06 06:42:16;;;;;;;32.85;16.80;;;8.50;99.90;;;;;;5093566;28;20024;-73
2023/04/06 06:44:42;;;;;;;30.23;14.85;;;8.50;99.90;;;;;;5093227;28;20478;-71
2023/04/06 06:47:07;;;;;;;34.63;16.77;;;8.50;99.90;;;;;;5092906;28;20207;-72
2023/04/06 06:49:33;;;;;;;29.77;16.08;;;8.50;99.90;;;;;;5093080;28;20024;-72
2023/04/06 06:51:58;;;;;;;29.17;16.13;;;8.50;99.90;;;;;;5093224;28;20103;-73
2023/04/06 06:54:24;;;;;;;30.58;16.63;;;8.60;99.90;;;;;;5091948;28;20089;-72
2023/04/06 06:56:49;;;;;;;30.40;17.13;;;8.60;99.90;;;;;;5093289;28;20084;-74
2023/04/06 06:59:16;;;;;;;33.60;16.02;;;8.70;99.90;;;;;;5093145;28;20107;-70
2023/04/06 07:01:42;;;;;;;35.10;17.63;;;8.80;99.90;;;;;;5093015;28;20460;-70
2023/04/06 07:04:08;;;;;;;34.40;17.45;;;8.90;99.90;;;;;;5093146;28;20031;-71
2023/04/06 07:06:35;;;;;;;35.40;18.10;;;9.00;99.90;;;;;;5093060;28;20099;-72
2023/04/06 07:09:03;;;;;;;37.70;19.25;;;9.20;99.90;;;;;;5092913;28;20125;-70
2023/04/06 07:11:29;;;;;;;36.00;18.98;;;9.30;99.90;;;;;;5092828;28;20020;-71
2023/04/06 07:13:55;;;;;;;37.55;19.13;;;9.50;99.90;;;;;;5091217;28;20066;-69
2023/04/06 07:16:20;;;;;;;36.75;18.00;;;9.60;99.90;;;;;;5092050;28;20031;-71
2023/04/06 07:18:46;;;;;;;32.65;17.20;;;9.70;99.90;;;;;;5090879;28;20384;-72
2023/04/06 07:21:11;;;;;;;33.75;18.75;;;9.80;99.90;;;;;;5090701;28;20460;-71
2023/04/06 07:23:37;;;;;;;39.15;19.42;;;9.80;99.90;;;;;;5090896;28;20028;-73
2023/04/06 07:26:03;;;;;;;35.10;17.58;;;9.90;99.90;;;;;;5090876;28;20487;-73
2023/04/06 07:28:28;;;;;;;34.78;16.63;;;10.00;99.90;;;;;;5091585;28;20024;-73
2023/04/06 07:30:55;;;;;;;35.30;18.30;;;9.90;99.90;;;;;;5079996;28;20031;-72
2023/04/06 07:33:21;;;;;;;33.75;18.10;;;9.80;99.90;;;;;;5091805;28;20055;-71
2023/04/06 07:35:46;;;;;;;36.20;18.25;;;9.90;99.90;;;;;;5092915;28;20421;-71
2023/04/06 07:38:12;;;;;;;33.72;17.98;;;9.90;99.90;;;;;;5088140;28;20055;-72
2023/04/06 07:40:37;;;;;;;33.88;17.42;;;10.00;99.90;;;;;;5085403;28;20024;-70
2023/04/06 07:43:03;;;;;;;33.15;18.45;;;10.10;99.90;;;;;;5092586;28;20035;-73
2023/04/06 07:45:29;;;;;;;35.53;18.10;;;10.10;99.90;;;;;;5076389;28;20440;-72
2023/04/06 07:47:55;;;;;;;34.90;18.13;;;10.30;99.90;;;;;;5092910;28;20031;-70
2023/04/06 07:50:21;;;;;;;36.10;17.42;;;10.50;99.90;;;;;;5092786;28;20024;-71
2023/04/06 07:52:47;;;;;;;32.25;17.58;;;10.60;99.90;;;;;;5092463;28;20071;-73
2023/04/06 07:55:12;;;;;;;31.90;16.88;;;10.70;99.90;;;;;;5089648;28;20112;-72
2023/04/06 07:57:38;;;;;;;32.88;17.38;;;11.00;99.90;;;;;;5083703;28;20032;-71
2023/04/06 08:00:04;;;;;;;34.92;17.23;;;11.10;99.90;;;;;;5092704;28;20141;-72
2023/04/06 08:02:31;;;;;;;34.63;17.05;;;11.30;99.90;;;;;;5092475;28;20036;-74
2023/04/06 08:04:57;;;;;;;31.48;17.33;;;11.40;99.90;;;;;;5092833;28;20032;-74
2023/04/06 08:07:23;;;;;;;35.20;18.13;;;11.50;99.90;;;;;;5096008;28;20016;-70
2023/04/06 08:09:49;;;;;;;37.45;17.90;;;11.40;99.90;;;;;;5096189;28;20027;-70
2023/04/06 08:12:14;;;;;;;38.65;18.85;;;11.40;99.90;;;;;;5096554;28;20028;-73
2023/04/06 08:14:40;;;;;;;35.58;17.88;;;11.50;99.90;;;;;;5096177;28;20143;-74
2023/04/06 08:17:06;;;;;;;36.72;18.45;;;11.50;99.90;;;;;;5096052;28;20056;-74
2023/04/06 08:19:31;;;;;;;33.25;18.65;;;11.50;99.90;;;;;;5095765;28;20387;-72
2023/04/06 08:21:57;;;;;;;33.67;18.70;;;11.50;99.90;;;;;;5095732;28;20028;-72
2023/04/06 08:24:22;;;;;;;33.83;17.55;;;11.50;99.90;;;;;;5096328;28;20024;-71
2023/04/06 08:26:48;;;;;;;34.60;18.75;;;11.50;99.90;;;;;;5095969;28;20048;-73
2023/04/06 08:29:14;;;;;;;27.67;12.98;;;11.50;99.90;;;;;;5095996;28;20099;-73
2023/04/06 08:31:39;;;;;;;28.30;13.93;;;11.50;99.90;;;;;;5095756;28;20016;-71
2023/04/06 08:34:05;;;;;;;32.63;17.90;;;11.50;99.90;;;;;;5095678;28;20028;-71
2023/04/06 08:36:31;;;;;;;31.80;16.95;;;11.50;99.90;;;;;;5095464;28;20036;-72
2023/04/06 08:38:57;;;;;;;32.72;17.45;;;11.50;99.90;;;;;;5095838;28;20028;-71
2023/04/06 08:41:22;;;;;;;31.77;17.52;;;11.60;99.90;;;;;;5095680;28;20103;-72
2023/04/06 08:43:49;;;;;;;35.45;17.42;;;11.60;99.90;;;;;;5095604;28;20094;-72
2023/04/06 08:46:15;;;;;;;31.30;16.15;;;11.70;99.90;;;;;;5095385;28;20028;-74
2023/04/06 08:48:42;;;;;;;31.55;16.02;;;11.70;99.90;;;;;;5095533;28;20028;-74
2023/04/06 08:51:09;;;;;;;32.50;16.95;;;11.70;99.90;;;;;;5095266;28;20028;-73
2023/04/06 08:53:35;;;;;;;32.55;18.55;;;11.70;99.90;;;;;;5095582;28;20028;-71
2023/04/06 08:56:03;;;;;;;32.92;16.23;;;11.60;99.90;;;;;;5095467;28;20030;-73
2023/04/06 08:58:36;;;;;;;32.63;17.35;;;11.50;99.90;;;;;;5095844;28;20061;-70
2023/04/06 09:01:06;;;;;;;35.53;17.98;;;11.20;99.90;;;;;;5095059;28;20032;-72
2023/04/06 09:03:37;;;;;;;36.10;18.88;;;11.00;99.90;;;;;;5078678;28;20470;-72
2023/04/06 09:06:04;;;;;;;36.10;18.92;;;10.80;99.90;;;;;;5095173;28;20487;-72
2023/04/06 09:08:29;;;;;;;35.95;17.40;;;10.80;99.90;;;;;;5095061;28;20032;-71
2023/04/06 09:10:55;;;;;;;36.58;19.85;;;10.80;99.90;;;;;;5095274;28;20077;-70
2023/04/06 09:13:21;;;;;;;36.53;18.40;;;10.70;99.90;;;;;;5094985;28;20365;-71
2023/04/06 09:15:46;;;;;;;32.28;16.25;;;10.70;99.90;;;;;;5094781;28;20384;-70
2023/04/06 09:18:12;;;;;;;33.97;14.35;;;10.70;99.90;;;;;;5094224;28;20039;-72
2023/04/06 09:20:37;;;;;;;35.17;19.55;;;10.60;99.90;;;;;;5095106;28;20024;-70
2023/04/06 09:23:03;;;;;;;32.67;18.15;;;10.50;99.90;;;;;;5094735;28;20483;-70
2023/04/06 09:25:31;;;;;;;35.83;20.88;;;10.60;99.90;;;;;;5077806;28;20486;-72
2023/04/06 09:28:03;;;;;;;35.92;15.95;;;10.70;99.90;;;;;;5094978;28;20384;-72
2023/04/06 09:30:30;;;;;;;30.25;16.33;;;10.90;99.90;;;;;;5094348;28;20472;-70
2023/04/06 09:32:57;;;;;;;33.72;17.38;;;10.90;99.90;;;;;;5094340;28;20020;-70
2023/04/06 09:35:23;;;;;;;31.00;16.48;;;10.90;99.90;;;;;;5094430;28;20028;-72
2023/04/06 09:37:50;;;;;;;27.08;15.07;;;11.00;99.90;;;;;;5094633;28;20460;-71
2023/04/06 09:40:18;;;;;;;27.92;14.30;;;11.20;99.90;;;;;;5094483;28;20024;-73
2023/04/06 09:42:52;;;;;;;27.55;14.00;;;11.20;99.90;;;;;;5094338;28;20093;-71
2023/04/06 09:45:18;;;;;;;29.92;16.58;;;11.20;99.90;;;;;;5094017;28;20036;-71
2023/04/06 09:47:45;;;;;;;32.95;15.93;;;11.20;99.90;;;;;;5094622;28;20027;-70
2023/04/06 09:50:12;;;;;;;25.73;12.55;;;11.30;99.90;;;;;;5094477;28;20024;-73
2023/04/06 09:52:50;;;;;;;17.48;9.85;;;11.50;99.90;;;;;;5094493;28;20035;-71
2023/04/06 09:55:34;;;;;;;19.90;10.75;;;11.30;99.90;;;;;;5094027;28;20423;-73
2023/04/06 09:58:06;;;;;;;21.40;9.57;;;11.10;99.90;;;;;;5094009;28;20436;-70
2023/04/06 10:00:34;;;;;;;22.93;8.83;;;11.00;99.90;;;;;;5094001;28;20044;-72
2023/04/06 10:03:14;;;;;;;18.90;8.50;;;10.90;99.90;;;;;;5093837;28;20020;-70
2023/04/06 10:05:46;;;;;;;19.42;9.80;;;10.90;99.90;;;;;;5078820;28;20056;-72
2023/04/06 10:08:13;;;;;;;21.03;9.73;;;10.90;99.90;;;;;;5093584;28;20028;-74
2023/04/06 10:10:39;;;;;;;18.00;8.57;;;10.80;99.90;;;;;;5093975;28;20024;-71
2023/04/06 10:13:05;;;;;;;23.67;10.05;;;10.80;99.90;;;;;;5094254;28;20482;-72
2023/04/06 10:15:31;;;;;;;17.08;7.70;;;10.80;99.90;;;;;;5094032;28;20099;-70
2023/04/06 10:17:58;;;;;;;18.38;8.27;;;10.90;99.90;;;;;;5094145;28;20024;-72
2023/04/06 10:20:48;;;;;;;16.17;8.02;;;11.00;99.90;;;;;;5093630;28;20443;-71
2023/04/06 10:23:51;;;;;;;15.55;6.63;;;11.10;99.90;;;;;;5093555;28;20468;-71
2023/04/06 10:26:20;;;;;;;19.48;7.78;;;11.10;99.90;;;;;;5068455;28;20257;-70
2023/04/06 10:28:47;;;;;;;15.88;7.05;;;10.90;99.90;;;;;;5093626;28;20468;-70
2023/04/06 10:31:13;;;;;;;18.33;8.45;;;10.70;99.90;;;;;;5093472;28;20099;-70
2023/04/06 10:33:40;;;;;;;18.52;8.10;;;10.40;99.90;;;;;;5093573;28;20036;-69
2023/04/06 10:36:26;;;;;;;17.75;8.82;;;10.30;99.90;;;;;;5093462;28;20099;-68
2023/04/06 10:39:06;;;;;;;15.27;7.10;;;10.30;99.90;;;;;;5093927;28;20400;-67
2023/04/06 10:41:43;;;;;;;16.83;6.72;;;10.20;99.90;;;;;;5077224;28;20029;-67
2023/04/06 10:44:21;;;;;;;13.18;6.05;;;10.10;99.90;;;;;;5093697;28;20039;-68
2023/04/06 10:46:55;;;;;;;16.55;8.00;;;10.10;99.90;;;;;;5093738;28;20101;-67
2023/04/06 10:49:20;;;;;;;20.70;8.77;;;10.20;99.90;;;;;;5092959;28;20412;-67
2023/04/06 10:51:55;;;;;;;16.35;6.60;;;10.30;99.90;;;;;;5093239;28;20044;-67
2023/04/06 10:54:25;;;;;;;15.23;6.88;;;10.40;99.90;;;;;;5092892;28;20376;-68
2023/04/06 10:56:50;;;;;;;17.48;7.72;;;10.30;99.90;;;;;;5093214;28;20103;-68
2023/04/06 10:59:24;;;;;;;19.63;8.05;;;10.20;99.90;;;;;;5093375;28;20112;-68
2023/04/06 11:01:50;;;;;;;15.85;7.03;;;10.20;99.90;;;;;;5093058;28;20020;-68
2023/04/06 11:04:18;;;;;;;16.15;8.23;;;10.10;99.90;;;;;;5092938;28;20024;-68
2023/04/06 11:06:47;;;;;;;17.55;8.50;;;10.00;99.90;;;;;;5092970;28;20038;-69
2023/04/06 11:09:26;;;;;;;20.13;8.82;;;10.00;99.90;;;;;;5093406;28;20024;-69
2023/04/06 11:11:52;;;;;;;18.85;8.18;;;10.10;99.90;;;;;;5093367;28;20012;-69
2023/04/06 11:14:18;;;;;;;15.77;7.40;;;10.20;99.90;;;;;;5093017;28;20043;-69
2023/04/06 11:16:48;;;;;;;19.10;8.77;;;10.10;99.90;;;;;;5093208;28;20109;-68
2023/04/06 11:19:14;;;;;;;14.65;6.18;;;10.10;99.90;;;;;;5092846;28;20488;-69
2023/04/06 11:21:46;;;;;;;16.23;8.18;;;10.10;99.90;;;;;;5093118;28;20024;-68
2023/04/06 11:24:19;;;;;;;18.60;9.80;;;10.00;99.90;;;;;;5091363;28;20055;-68
2023/04/06 11:26:48;;;;;;;19.40;9.52;;;10.00;99.90;;;;;;5085057;28;20064;-68
2023/04/06 11:29:15;;;;;;;19.95;10.15;;;10.00;99.90;;;;;;5091190;28;20063;-68
2023/04/06 11:31:45;;;;;;;17.75;9.40;;;10.00;99.90;;;;;;5092654;28;20103;-69
2023/04/06 11:34:11;;;;;;;20.02;10.52;;;10.00;99.90;;;;;;5092639;28;20124;-69
2023/04/06 11:36:41;;;;;;;14.40;7.50;;;10.10;99.90;;;;;;5092997;28;20031;-70
2023/04/06 11:39:06;;;;;;;17.98;8.82;;;10.00;99.90;;;;;;5092730;28;20028;-69
2023/04/06 11:41:32;;;;;;;17.00;8.80;;;10.00;99.90;;;;;;5095846;28;20016;-69
2023/04/06 11:44:01;;;;;;;17.10;7.63;;;10.00;99.90;;;;;;5090126;28;20113;-70
2023/04/06 11:46:27;;;;;;;18.50;9.05;;;9.90;99.90;;;;;;5092220;28;20099;-69
2023/04/06 11:48:57;;;;;;;17.70;8.85;;;9.90;99.90;;;;;;5085896;28;20163;-69
2023/04/06 11:51:26;;;;;;;18.75;9.43;;;9.90;99.90;;;;;;5095854;28;20035;-69
2023/04/06 11:53:52;;;;;;;18.58;9.88;;;9.80;99.90;;;;;;5096545;28;20113;-69
2023/04/06 11:56:28;;;;;;;16.92;8.32;;;9.70;99.90;;;;;;5096519;28;20056;-69
2023/04/06 11:58:56;;;;;;;16.05;8.52;;;9.70;99.90;;;;;;5096504;28;20035;-69
2023/04/06 12:01:23;;;;;;;13.23;5.75;;;9.70;99.90;;;;;;5096015;28;20107;-68
2023/04/06 12:03:49;;;;;;;17.80;8.45;;;9.70;99.90;;;;;;5096295;28;20035;-69
2023/04/06 12:06:15;;;;;;;18.85;9.10;;;9.70;99.90;;;;;;5096154;28;20028;-69
2023/04/06 12:08:40;;;;;;;18.42;9.32;;;9.70;99.90;;;;;;5096230;28;20077;-69
2023/04/06 12:11:06;;;;;;;17.92;8.90;;;9.70;99.90;;;;;;5095951;28;20027;-69
2023/04/06 12:13:32;;;;;;;17.42;8.90;;;9.70;99.90;;;;;;5096174;28;20035;-69
2023/04/06 12:15:57;;;;;;;19.92;9.82;;;9.70;99.90;;;;;;5096401;28;20383;-69
2023/04/06 12:18:23;;;;;;;23.25;11.13;;;9.70;99.90;;;;;;5096391;28;20389;-69
2023/04/06 12:20:48;;;;;;;17.95;8.77;;;9.80;99.90;;;;;;5096145;28;20024;-70
2023/04/06 12:23:14;;;;;;;20.35;10.40;;;9.80;99.90;;;;;;5095693;28;20028;-68
2023/04/06 12:25:41;;;;;;;19.77;9.90;;;9.80;99.90;;;;;;5095656;28;20066;-69
2023/04/06 12:28:06;;;;;;;19.90;11.00;;;9.80;99.90;;;;;;5095922;28;20032;-69
2023/04/06 12:30:32;;;;;;;20.85;10.57;;;9.70;99.90;;;;;;5096005;28;20024;-69
2023/04/06 12:32:58;;;;;;;18.67;9.18;;;9.70;99.90;;;;;;5095560;28;20028;-68